sensor_id;sensor_type;location;lat;lon;timestamp;temperature;humidity
5392;DHT22;2719;53.624;9.786;2023-03-24T00:01:02;11.50;99.90
5392;DHT22;2719;53.624;9.786;2023-03-24T00:03:29;11.50;99.90
5392;DHT22;2719;53.624;9.786;2023-03-24T00:05:59;11.50;99.90
5392;DHT22;2719;53.624;9.786;2023-03-24T00:08:27;11.50;99.90
5392;DHT22;2719;53.624;9.786;2023-03-24T00:10:57;11.50;99.90
5392;DHT22;2719;53.624;9.786;2023-03-24T00:13:25;11.50;99.90
5392;DHT22;2719;53.624;9.786;2023-03-24T00:15:52;11.50;99.90
5392;DHT22;2719;53.624;9.786;2023-03-24T00:18:18;11.50;99.90
5392;DHT22;2719;53.624;9.786;2023-03-24T00:20:47;11.50;99.90
5392;DHT22;2719;53.624;9.786;2023-03-24T00:23:15;11.50;99.90
5392;DHT22;2719;53.624;9.786;2023-03-24T00:25:41;11.50;99.90
5392;DHT22;2719;53.624;9.786;2023-03-24T00:28:09;11.50;99.90
5392;DHT22;2719;53.624;9.786;2023-03-24T00:30:40;11.50;99.90
5392;DHT22;2719;53.624;9.786;2023-03-24T00:33:07;11.50;99.90
5392;DHT22;2719;53.624;9.786;2023-03-24T00:35:34;11.50;99.90
5392;DHT22;2719;53.624;9.786;2023-03-24T00:38:01;11.50;99.90
5392;DHT22;2719;53.624;9.786;2023-03-24T00:40:29;11.50;99.90
5392;DHT22;2719;53.624;9.786;2023-03-24T00:42:56;11.40;99.90
5392;DHT22;2719;53.624;9.786;2023-03-24T00:45:23;11.50;99.90
5392;DHT22;2719;53.624;9.786;2023-03-24T00:47:50;11.50;99.90
5392;DHT22;2719;53.624;9.786;2023-03-24T00:50:19;11.40;99.90
5392;DHT22;2719;53.624;9.786;2023-03-24T00:52:51;11.40;99.90
5392;DHT22;2719;53.624;9.786;2023-03-24T00:55:17;11.40;99.90
5392;DHT22;2719;53.624;9.786;2023-03-24T00:57:47;11.30;99.90
5392;DHT22;2719;53.624;9.786;2023-03-24T01:00:17;11.40;99.90
5392;DHT22;2719;53.624;9.786;2023-03-24T01:02:45;11.30;99.90
5392;DHT22;2719;53.624;9.786;2023-03-24T01:05:12;11.30;99.90
5392;DHT22;2719;53.624;9.786;2023-03-24T01:07:42;11.30;99.90
5392;DHT22;2719;53.624;9.786;2023-03-24T01:10:11;11.30;99.90
5392;DHT22;2719;53.624;9.786;2023-03-24T01:12:38;11.30;99.90
5392;DHT22;2719;53.624;9.786;2023-03-24T01:15:11;11.30;99.90
5392;DHT22;2719;53.624;9.786;2023-03-24T01:17:39;11.30;99.90
5392;DHT22;2719;53.624;9.786;2023-03-24T01:20:07;11.20;99.90
5392;DHT22;2719;53.624;9.786;2023-03-24T01:22:37;11.20;99.90
5392;DHT22;2719;53.624;9.786;2023-03-24T01:25:05;11.20;99.90
5392;DHT22;2719;53.624;9.786;2023-03-24T01:27:32;11.20;99.90
5392;DHT22;2719;53.624;9.786;2023-03-24T01:29:59;11.20;99.90
5392;DHT22;2719;53.624;9.786;2023-03-24T01:32:27;11.10;99.90
5392;DHT22;2719;53.624;9.786;2023-03-24T01:34:54;11.10;99.90
5392;DHT22;2719;53.624;9.786;2023-03-24T01:37:21;11.10;99.90
5392;DHT22;2719;53.624;9.786;2023-03-24T01:39:48;11.10;99.90
5392;DHT22;2719;53.624;9.786;2023-03-24T01:42:17;11.10;99.90
5392;DHT22;2719;53.624;9.786;2023-03-24T01:44:45;11.20;99.90
5392;DHT22;2719;53.624;9.786;2023-03-24T01:47:12;11.10;99.90
5392;DHT22;2719;53.624;9.786;2023-03-24T01:49:43;11.10;99.90
5392;DHT22;2719;53.624;9.786;2023-03-24T01:52:14;11.00;99.90
5392;DHT22;2719;53.624;9.786;2023-03-24T01:54:46;11.00;99.90
5392;DHT22;2719;53.624;9.786;2023-03-24T01:57:17;11.00;99.90
5392;DHT22;2719;53.624;9.786;2023-03-24T01:59:49;11.10;99.90
5392;DHT22;2719;53.624;9.786;2023-03-24T02:02:16;11.00;99.90
5392;DHT22;2719;53.624;9.786;2023-03-24T02:04:49;11.00;99.90
5392;DHT22;2719;53.624;9.786;2023-03-24T02:07:25;11.00;99.90
5392;DHT22;2719;53.624;9.786;2023-03-24T02:09:55;11.00;99.90
5392;DHT22;2719;53.624;9.786;2023-03-24T02:12:21;11.00;99.90
5392;DHT22;2719;53.624;9.786;2023-03-24T02:14:48;11.00;99.90
5392;DHT22;2719;53.624;9.786;2023-03-24T02:17:28;11.00;99.90
5392;DHT22;2719;53.624;9.786;2023-03-24T02:20:13;11.00;99.90
5392;DHT22;2719;53.624;9.786;2023-03-24T02:23:02;11.10;99.90
5392;DHT22;2719;53.624;9.786;2023-03-24T02:28:44;10.90;99.90
5392;DHT22;2719;53.624;9.786;2023-03-24T02:31:50;10.90;99.90
5392;DHT22;2719;53.624;9.786;2023-03-24T02:34:44;11.00;99.90
5392;DHT22;2719;53.624;9.786;2023-03-24T02:40:19;10.90;99.90
5392;DHT22;2719;53.624;9.786;2023-03-24T02:42:57;11.00;99.90
5392;DHT22;2719;53.624;9.786;2023-03-24T02:45:29;10.90;99.90
5392;DHT22;2719;53.624;9.786;2023-03-24T02:48:09;10.90;99.90
5392;DHT22;2719;53.624;9.786;2023-03-24T02:50:43;11.00;99.90
5392;DHT22;2719;53.624;9.786;2023-03-24T02:53:16;10.90;99.90
5392;DHT22;2719;53.624;9.786;2023-03-24T02:55:51;10.90;99.90
5392;DHT22;2719;53.624;9.786;2023-03-24T02:58:24;10.90;99.90
5392;DHT22;2719;53.624;9.786;2023-03-24T03:00:56;10.90;99.90
5392;DHT22;2719;53.624;9.786;2023-03-24T03:03:30;10.90;99.90
5392;DHT22;2719;53.624;9.786;2023-03-24T03:06:00;10.90;99.90
5392;DHT22;2719;53.624;9.786;2023-03-24T03:08:30;10.90;99.90
5392;DHT22;2719;53.624;9.786;2023-03-24T03:11:01;11.00;99.90
5392;DHT22;2719;53.624;9.786;2023-03-24T03:13:31;10.90;99.90
5392;DHT22;2719;53.624;9.786;2023-03-24T03:16:04;10.90;99.90
5392;DHT22;2719;53.624;9.786;2023-03-24T03:18:35;10.90;99.90
5392;DHT22;2719;53.624;9.786;2023-03-24T03:21:06;10.90;99.90
5392;DHT22;2719;53.624;9.786;2023-03-24T03:23:37;10.90;99.90
5392;DHT22;2719;53.624;9.786;2023-03-24T03:26:09;10.90;99.90
5392;DHT22;2719;53.624;9.786;2023-03-24T03:28:41;10.90;99.90
5392;DHT22;2719;53.624;9.786;2023-03-24T03:31:16;10.90;99.90
5392;DHT22;2719;53.624;9.786;2023-03-24T03:33:49;11.00;99.90
5392;DHT22;2719;53.624;9.786;2023-03-24T03:36:22;10.90;99.90
5392;DHT22;2719;53.624;9.786;2023-03-24T03:38:54;11.00;99.90
5392;DHT22;2719;53.624;9.786;2023-03-24T03:41:23;11.00;99.90
5392;DHT22;2719;53.624;9.786;2023-03-24T03:43:51;11.00;99.90
5392;DHT22;2719;53.624;9.786;2023-03-24T03:46:18;11.00;99.90
5392;DHT22;2719;53.624;9.786;2023-03-24T03:48:45;11.00;99.90
5392;DHT22;2719;53.624;9.786;2023-03-24T03:51:12;11.00;99.90
5392;DHT22;2719;53.624;9.786;2023-03-24T03:53:45;11.00;99.90
5392;DHT22;2719;53.624;9.786;2023-03-24T03:56:14;11.00;99.90
5392;DHT22;2719;53.624;9.786;2023-03-24T03:58:44;11.00;99.90
5392;DHT22;2719;53.624;9.786;2023-03-24T04:01:14;11.10;99.90
5392;DHT22;2719;53.624;9.786;2023-03-24T04:04:07;11.10;99.90
5392;DHT22;2719;53.624;9.786;2023-03-24T04:06:38;11.10;99.90
5392;DHT22;2719;53.624;9.786;2023-03-24T04:09:18;11.10;99.90
5392;DHT22;2719;53.624;9.786;2023-03-24T04:12:03;11.10;99.90
5392;DHT22;2719;53.624;9.786;2023-03-24T04:14:57;11.10;99.90
5392;DHT22;2719;53.624;9.786;2023-03-24T04:17:40;11.20;99.90
5392;DHT22;2719;53.624;9.786;2023-03-24T04:20:14;11.20;99.90
5392;DHT22;2719;53.624;9.786;2023-03-24T04:22:53;11.20;99.90
5392;DHT22;2719;53.624;9.786;2023-03-24T04:25:28;11.20;99.90
5392;DHT22;2719;53.624;9.786;2023-03-24T04:28:03;11.20;99.90
5392;DHT22;2719;53.624;9.786;2023-03-24T04:30:40;11.20;99.90
5392;DHT22;2719;53.624;9.786;2023-03-24T04:33:12;11.30;99.90
5392;DHT22;2719;53.624;9.786;2023-03-24T04:35:45;11.30;99.90
5392;DHT22;2719;53.624;9.786;2023-03-24T04:38:17;11.30;99.90
5392;DHT22;2719;53.624;9.786;2023-03-24T04:40:49;11.30;99.90
5392;DHT22;2719;53.624;9.786;2023-03-24T04:43:22;11.30;99.90
5392;DHT22;2719;53.624;9.786;2023-03-24T04:45:52;11.30;99.90
5392;DHT22;2719;53.624;9.786;2023-03-24T04:48:23;11.30;99.90
5392;DHT22;2719;53.624;9.786;2023-03-24T04:50:53;11.30;99.90
5392;DHT22;2719;53.624;9.786;2023-03-24T04:53:20;11.30;99.90
5392;DHT22;2719;53.624;9.786;2023-03-24T04:55:59;11.30;99.90
5392;DHT22;2719;53.624;9.786;2023-03-24T04:58:27;11.30;99.90
5392;DHT22;2719;53.624;9.786;2023-03-24T05:00:56;11.30;99.90
5392;DHT22;2719;53.624;9.786;2023-03-24T05:03:23;11.20;99.90
5392;DHT22;2719;53.624;9.786;2023-03-24T05:05:51;11.30;99.90
5392;DHT22;2719;53.624;9.786;2023-03-24T05:08:19;11.30;99.90
5392;DHT22;2719;53.624;9.786;2023-03-24T05:10:46;11.30;99.90
5392;DHT22;2719;53.624;9.786;2023-03-24T05:13:13;11.30;99.90
5392;DHT22;2719;53.624;9.786;2023-03-24T05:15:40;11.30;99.90
5392;DHT22;2719;53.624;9.786;2023-03-24T05:18:08;11.30;99.90
5392;DHT22;2719;53.624;9.786;2023-03-24T05:20:35;11.40;99.90
5392;DHT22;2719;53.624;9.786;2023-03-24T05:23:02;11.30;99.90
5392;DHT22;2719;53.624;9.786;2023-03-24T05:25:28;11.40;99.90
5392;DHT22;2719;53.624;9.786;2023-03-24T05:27:55;11.30;99.90
5392;DHT22;2719;53.624;9.786;2023-03-24T05:30:22;11.30;99.90
5392;DHT22;2719;53.624;9.786;2023-03-24T05:32:49;11.30;99.90
5392;DHT22;2719;53.624;9.786;2023-03-24T05:35:17;11.40;99.90
5392;DHT22;2719;53.624;9.786;2023-03-24T05:37:44;11.40;99.90
5392;DHT22;2719;53.624;9.786;2023-03-24T05:40:11;11.40;99.90
5392;DHT22;2719;53.624;9.786;2023-03-24T05:42:37;11.40;99.90
5392;DHT22;2719;53.624;9.786;2023-03-24T05:45:06;11.50;99.90
5392;DHT22;2719;53.624;9.786;2023-03-24T05:47:32;11.50;99.90
5392;DHT22;2719;53.624;9.786;2023-03-24T05:49:59;11.50;99.90
5392;DHT22;2719;53.624;9.786;2023-03-24T05:52:27;11.50;99.90
5392;DHT22;2719;53.624;9.786;2023-03-24T05:54:54;11.50;99.90
5392;DHT22;2719;53.624;9.786;2023-03-24T05:57:21;11.50;99.90
5392;DHT22;2719;53.624;9.786;2023-03-24T05:59:47;11.50;99.90
5392;DHT22;2719;53.624;9.786;2023-03-24T06:02:14;11.50;99.90
5392;DHT22;2719;53.624;9.786;2023-03-24T06:04:41;11.50;99.90
5392;DHT22;2719;53.624;9.786;2023-03-24T06:07:10;11.50;99.90
5392;DHT22;2719;53.624;9.786;2023-03-24T06:09:38;11.60;99.90
5392;DHT22;2719;53.624;9.786;2023-03-24T06:12:07;11.60;99.90
5392;DHT22;2719;53.624;9.786;2023-03-24T06:14:34;11.60;99.90
5392;DHT22;2719;53.624;9.786;2023-03-24T06:17:01;11.60;99.90
5392;DHT22;2719;53.624;9.786;2023-03-24T06:19:28;11.60;99.90
5392;DHT22;2719;53.624;9.786;2023-03-24T06:21:57;11.60;99.90
5392;DHT22;2719;53.624;9.786;2023-03-24T06:24:24;11.60;99.90
5392;DHT22;2719;53.624;9.786;2023-03-24T06:26:52;11.60;99.90
5392;DHT22;2719;53.624;9.786;2023-03-24T06:29:26;11.60;99.90
5392;DHT22;2719;53.624;9.786;2023-03-24T06:31:53;11.60;99.90
5392;DHT22;2719;53.624;9.786;2023-03-24T06:34:20;11.70;99.90
5392;DHT22;2719;53.624;9.786;2023-03-24T06:36:49;11.70;99.90
5392;DHT22;2719;53.624;9.786;2023-03-24T06:39:16;11.70;99.90
5392;DHT22;2719;53.624;9.786;2023-03-24T06:41:43;11.70;99.90
5392;DHT22;2719;53.624;9.786;2023-03-24T06:44:11;11.70;99.90
5392;DHT22;2719;53.624;9.786;2023-03-24T06:46:38;11.80;99.90
5392;DHT22;2719;53.624;9.786;2023-03-24T06:49:06;11.80;99.90
5392;DHT22;2719;53.624;9.786;2023-03-24T06:51:33;11.80;99.90
5392;DHT22;2719;53.624;9.786;2023-03-24T06:54:00;11.80;99.90
5392;DHT22;2719;53.624;9.786;2023-03-24T06:56:27;11.80;99.90
5392;DHT22;2719;53.624;9.786;2023-03-24T06:58:55;11.80;99.90
5392;DHT22;2719;53.624;9.786;2023-03-24T07:01:23;11.80;99.90
5392;DHT22;2719;53.624;9.786;2023-03-24T07:03:50;11.80;99.90
5392;DHT22;2719;53.624;9.786;2023-03-24T07:06:17;11.80;99.90
5392;DHT22;2719;53.624;9.786;2023-03-24T07:08:44;11.80;99.90
5392;DHT22;2719;53.624;9.786;2023-03-24T07:11:11;11.80;99.90
5392;DHT22;2719;53.624;9.786;2023-03-24T07:13:39;11.70;99.90
5392;DHT22;2719;53.624;9.786;2023-03-24T07:16:06;11.70;99.90
5392;DHT22;2719;53.624;9.786;2023-03-24T07:18:34;11.70;99.90
5392;DHT22;2719;53.624;9.786;2023-03-24T07:21:01;11.70;99.90
5392;DHT22;2719;53.624;9.786;2023-03-24T07:23:28;11.70;99.90
5392;DHT22;2719;53.624;9.786;2023-03-24T07:25:55;11.60;99.90
5392;DHT22;2719;53.624;9.786;2023-03-24T07:28:22;11.60;99.90
5392;DHT22;2719;53.624;9.786;2023-03-24T07:30:48;11.70;99.90
5392;DHT22;2719;53.624;9.786;2023-03-24T07:33:15;11.70;99.90
5392;DHT22;2719;53.624;9.786;2023-03-24T07:35:43;11.60;99.90
5392;DHT22;2719;53.624;9.786;2023-03-24T07:38:10;11.60;99.90
5392;DHT22;2719;53.624;9.786;2023-03-24T07:40:37;11.70;99.90
5392;DHT22;2719;53.624;9.786;2023-03-24T07:43:05;11.70;99.90
5392;DHT22;2719;53.624;9.786;2023-03-24T07:45:32;11.60;99.90
5392;DHT22;2719;53.624;9.786;2023-03-24T07:47:58;11.60;99.90
5392;DHT22;2719;53.624;9.786;2023-03-24T07:50:27;11.60;99.90
5392;DHT22;2719;53.624;9.786;2023-03-24T07:52:55;11.60;99.90
5392;DHT22;2719;53.624;9.786;2023-03-24T07:55:22;11.60;99.90
5392;DHT22;2719;53.624;9.786;2023-03-24T07:57:49;11.70;99.90
5392;DHT22;2719;53.624;9.786;2023-03-24T08:00:17;11.70;99.90
5392;DHT22;2719;53.624;9.786;2023-03-24T08:02:47;11.80;99.90
5392;DHT22;2719;53.624;9.786;2023-03-24T08:05:15;11.80;99.90
5392;DHT22;2719;53.624;9.786;2023-03-24T08:07:44;11.70;99.90
5392;DHT22;2719;53.624;9.786;2023-03-24T08:10:16;11.80;99.90
5392;DHT22;2719;53.624;9.786;2023-03-24T08:12:43;11.80;99.90
5392;DHT22;2719;53.624;9.786;2023-03-24T08:15:09;11.80;99.90
5392;DHT22;2719;53.624;9.786;2023-03-24T08:17:37;11.80;99.90
5392;DHT22;2719;53.624;9.786;2023-03-24T08:20:07;11.90;99.90
5392;DHT22;2719;53.624;9.786;2023-03-24T08:22:37;11.80;99.90
5392;DHT22;2719;53.624;9.786;2023-03-24T08:25:05;11.80;99.90
5392;DHT22;2719;53.624;9.786;2023-03-24T08:27:34;11.90;99.90
5392;DHT22;2719;53.624;9.786;2023-03-24T08:30:02;11.90;99.90
5392;DHT22;2719;53.624;9.786;2023-03-24T08:32:29;11.90;99.90
5392;DHT22;2719;53.624;9.786;2023-03-24T08:34:56;11.90;99.90
5392;DHT22;2719;53.624;9.786;2023-03-24T08:37:23;11.80;99.90
5392;DHT22;2719;53.624;9.786;2023-03-24T08:39:50;11.90;99.90
5392;DHT22;2719;53.624;9.786;2023-03-24T08:42:16;11.80;99.90
5392;DHT22;2719;53.624;9.786;2023-03-24T08:44:44;11.80;99.90
5392;DHT22;2719;53.624;9.786;2023-03-24T08:47:11;11.80;99.90
5392;DHT22;2719;53.624;9.786;2023-03-24T08:49:38;11.80;99.90
5392;DHT22;2719;53.624;9.786;2023-03-24T08:52:04;11.70;99.90
5392;DHT22;2719;53.624;9.786;2023-03-24T08:54:32;11.80;99.90
5392;DHT22;2719;53.624;9.786;2023-03-24T08:56:59;11.80;99.90
5392;DHT22;2719;53.624;9.786;2023-03-24T08:59:26;11.90;99.90
5392;DHT22;2719;53.624;9.786;2023-03-24T09:01:54;12.00;99.90
5392;DHT22;2719;53.624;9.786;2023-03-24T09:04:21;11.90;99.90
5392;DHT22;2719;53.624;9.786;2023-03-24T09:06:47;11.80;99.90
5392;DHT22;2719;53.624;9.786;2023-03-24T09:09:14;11.80;99.90
5392;DHT22;2719;53.624;9.786;2023-03-24T09:11:40;11.80;99.90
5392;DHT22;2719;53.624;9.786;2023-03-24T09:14:07;11.90;99.90
5392;DHT22;2719;53.624;9.786;2023-03-24T09:16:34;11.90;99.90
5392;DHT22;2719;53.624;9.786;2023-03-24T09:19:02;11.90;99.90
5392;DHT22;2719;53.624;9.786;2023-03-24T09:21:28;11.80;99.90
5392;DHT22;2719;53.624;9.786;2023-03-24T09:23:55;11.80;99.90
5392;DHT22;2719;53.624;9.786;2023-03-24T09:26:22;11.80;99.90
5392;DHT22;2719;53.624;9.786;2023-03-24T09:28:48;11.80;99.90
5392;DHT22;2719;53.624;9.786;2023-03-24T09:31:15;11.80;99.90
5392;DHT22;2719;53.624;9.786;2023-03-24T09:33:42;11.80;99.90
5392;DHT22;2719;53.624;9.786;2023-03-24T09:36:10;11.90;99.90
5392;DHT22;2719;53.624;9.786;2023-03-24T09:38:37;11.90;99.90
5392;DHT22;2719;53.624;9.786;2023-03-24T09:41:10;12.00;99.90
5392;DHT22;2719;53.624;9.786;2023-03-24T09:43:42;11.90;99.90
5392;DHT22;2719;53.624;9.786;2023-03-24T09:46:12;11.80;99.90
5392;DHT22;2719;53.624;9.786;2023-03-24T09:48:42;11.90;99.90
5392;DHT22;2719;53.624;9.786;2023-03-24T09:51:17;11.90;99.90
5392;DHT22;2719;53.624;9.786;2023-03-24T09:53:53;11.90;99.90
5392;DHT22;2719;53.624;9.786;2023-03-24T09:56:25;12.00;99.90
5392;DHT22;2719;53.624;9.786;2023-03-24T09:59:00;11.90;99.90
5392;DHT22;2719;53.624;9.786;2023-03-24T10:01:28;12.00;99.90
5392;DHT22;2719;53.624;9.786;2023-03-24T10:03:57;11.80;99.90
5392;DHT22;2719;53.624;9.786;2023-03-24T10:06:27;12.00;99.90
5392;DHT22;2719;53.624;9.786;2023-03-24T10:09:07;12.00;99.90
5392;DHT22;2719;53.624;9.786;2023-03-24T10:11:43;12.00;99.90
5392;DHT22;2719;53.624;9.786;2023-03-24T10:14:20;12.00;99.90
5392;DHT22;2719;53.624;9.786;2023-03-24T10:16:56;12.10;99.90
5392;DHT22;2719;53.624;9.786;2023-03-24T10:19:35;12.20;99.90
5392;DHT22;2719;53.624;9.786;2023-03-24T10:22:10;12.20;99.90
5392;DHT22;2719;53.624;9.786;2023-03-24T10:24:43;12.20;99.90
5392;DHT22;2719;53.624;9.786;2023-03-24T10:27:17;12.30;99.90
5392;DHT22;2719;53.624;9.786;2023-03-24T10:29:47;12.50;99.90
5392;DHT22;2719;53.624;9.786;2023-03-24T10:32:17;12.50;99.90
5392;DHT22;2719;53.624;9.786;2023-03-24T10:34:48;12.50;99.90
5392;DHT22;2719;53.624;9.786;2023-03-24T10:37:17;12.40;99.90
5392;DHT22;2719;53.624;9.786;2023-03-24T10:39:45;12.40;99.90
5392;DHT22;2719;53.624;9.786;2023-03-24T10:42:14;12.30;99.90
5392;DHT22;2719;53.624;9.786;2023-03-24T10:44:43;12.30;99.90
5392;DHT22;2719;53.624;9.786;2023-03-24T10:47:12;12.30;99.90
5392;DHT22;2719;53.624;9.786;2023-03-24T10:49:53;12.30;99.90
5392;DHT22;2719;53.624;9.786;2023-03-24T10:52:21;12.40;99.90
5392;DHT22;2719;53.624;9.786;2023-03-24T10:54:53;12.40;99.90
5392;DHT22;2719;53.624;9.786;2023-03-24T10:57:21;12.40;99.90
5392;DHT22;2719;53.624;9.786;2023-03-24T10:59:53;12.40;99.90
5392;DHT22;2719;53.624;9.786;2023-03-24T11:02:23;12.50;99.90
5392;DHT22;2719;53.624;9.786;2023-03-24T11:04:54;12.50;99.90
5392;DHT22;2719;53.624;9.786;2023-03-24T11:07:28;12.50;99.90
5392;DHT22;2719;53.624;9.786;2023-03-24T11:09:58;12.50;99.90
5392;DHT22;2719;53.624;9.786;2023-03-24T11:12:27;12.50;99.90
5392;DHT22;2719;53.624;9.786;2023-03-24T11:15:02;12.40;99.90
5392;DHT22;2719;53.624;9.786;2023-03-24T11:17:39;12.40;99.90
5392;DHT22;2719;53.624;9.786;2023-03-24T11:20:16;12.40;99.90
5392;DHT22;2719;53.624;9.786;2023-03-24T11:22:58;12.30;99.90
5392;DHT22;2719;53.624;9.786;2023-03-24T11:25:26;12.60;99.90
5392;DHT22;2719;53.624;9.786;2023-03-24T11:27:56;12.90;99.90
5392;DHT22;2719;53.624;9.786;2023-03-24T11:30:25;13.00;99.90
5392;DHT22;2719;53.624;9.786;2023-03-24T11:32:53;13.10;99.90
5392;DHT22;2719;53.624;9.786;2023-03-24T11:35:20;13.40;99.90
5392;DHT22;2719;53.624;9.786;2023-03-24T11:37:49;13.50;99.90
5392;DHT22;2719;53.624;9.786;2023-03-24T11:40:20;13.50;99.90
5392;DHT22;2719;53.624;9.786;2023-03-24T11:42:48;13.50;99.90
5392;DHT22;2719;53.624;9.786;2023-03-24T11:45:25;13.70;99.90
5392;DHT22;2719;53.624;9.786;2023-03-24T11:47:55;13.90;99.90
5392;DHT22;2719;53.624;9.786;2023-03-24T11:50:26;14.00;99.90
5392;DHT22;2719;53.624;9.786;2023-03-24T11:52:59;14.00;99.90
5392;DHT22;2719;53.624;9.786;2023-03-24T11:55:34;14.10;99.90
5392;DHT22;2719;53.624;9.786;2023-03-24T11:58:03;14.00;99.90
5392;DHT22;2719;53.624;9.786;2023-03-24T12:00:36;13.90;99.90
5392;DHT22;2719;53.624;9.786;2023-03-24T12:03:31;14.00;99.90
5392;DHT22;2719;53.624;9.786;2023-03-24T12:06:14;14.00;99.90
5392;DHT22;2719;53.624;9.786;2023-03-24T12:08:55;13.90;99.90
5392;DHT22;2719;53.624;9.786;2023-03-24T12:11:30;13.80;99.90
5392;DHT22;2719;53.624;9.786;2023-03-24T12:14:00;14.10;99.90
5392;DHT22;2719;53.624;9.786;2023-03-24T12:16:39;14.10;99.90
5392;DHT22;2719;53.624;9.786;2023-03-24T12:19:32;14.40;99.90
5392;DHT22;2719;53.624;9.786;2023-03-24T12:22:10;14.80;99.90
5392;DHT22;2719;53.624;9.786;2023-03-24T12:24:58;15.00;99.90
5392;DHT22;2719;53.624;9.786;2023-03-24T12:27:40;15.30;99.90
5392;DHT22;2719;53.624;9.786;2023-03-24T12:30:17;15.40;99.90
5392;DHT22;2719;53.624;9.786;2023-03-24T12:32:54;15.60;99.90
5392;DHT22;2719;53.624;9.786;2023-03-24T12:35:45;15.90;99.90
5392;DHT22;2719;53.624;9.786;2023-03-24T12:38:37;15.80;99.90
5392;DHT22;2719;53.624;9.786;2023-03-24T12:47:28;16.30;99.90
5392;DHT22;2719;53.624;9.786;2023-03-24T12:50:08;16.40;99.90
5392;DHT22;2719;53.624;9.786;2023-03-24T12:52:51;16.40;99.60
5392;DHT22;2719;53.624;9.786;2023-03-24T12:55:22;16.20;98.40
5392;DHT22;2719;53.624;9.786;2023-03-24T12:57:56;16.10;98.40
5392;DHT22;2719;53.624;9.786;2023-03-24T13:00:27;16.00;98.10
5392;DHT22;2719;53.624;9.786;2023-03-24T13:02:58;15.90;99.30
5392;DHT22;2719;53.624;9.786;2023-03-24T13:05:28;16.00;99.90
5392;DHT22;2719;53.624;9.786;2023-03-24T13:07:59;15.60;99.40
5392;DHT22;2719;53.624;9.786;2023-03-24T13:10:28;15.40;99.90
5392;DHT22;2719;53.624;9.786;2023-03-24T13:12:59;15.20;99.90
5392;DHT22;2719;53.624;9.786;2023-03-24T13:15:30;15.00;99.90
5392;DHT22;2719;53.624;9.786;2023-03-24T13:18:04;15.00;99.90
5392;DHT22;2719;53.624;9.786;2023-03-24T13:20:36;15.20;99.10
5392;DHT22;2719;53.624;9.786;2023-03-24T13:23:16;15.10;97.90
5392;DHT22;2719;53.624;9.786;2023-03-24T13:25:50;15.10;98.50
5392;DHT22;2719;53.624;9.786;2023-03-24T13:28:23;15.00;98.60
5392;DHT22;2719;53.624;9.786;2023-03-24T13:30:52;15.10;99.00
5392;DHT22;2719;53.624;9.786;2023-03-24T13:33:23;15.10;98.70
5392;DHT22;2719;53.624;9.786;2023-03-24T13:36:02;15.30;98.80
5392;DHT22;2719;53.624;9.786;2023-03-24T13:38:35;15.50;98.00
5392;DHT22;2719;53.624;9.786;2023-03-24T13:41:04;15.60;97.70
5392;DHT22;2719;53.624;9.786;2023-03-24T13:43:33;15.40;98.20
5392;DHT22;2719;53.624;9.786;2023-03-24T13:46:01;15.60;98.40
5392;DHT22;2719;53.624;9.786;2023-03-24T13:48:35;15.80;96.40
5392;DHT22;2719;53.624;9.786;2023-03-24T13:51:06;16.00;95.50
5392;DHT22;2719;53.624;9.786;2023-03-24T13:53:37;16.20;95.80
5392;DHT22;2719;53.624;9.786;2023-03-24T13:56:06;16.30;95.80
5392;DHT22;2719;53.624;9.786;2023-03-24T13:58:50;16.30;94.60
5392;DHT22;2719;53.624;9.786;2023-03-24T14:01:33;16.40;94.70
5392;DHT22;2719;53.624;9.786;2023-03-24T14:04:25;16.30;93.60
5392;DHT22;2719;53.624;9.786;2023-03-24T14:06:53;16.30;94.10
5392;DHT22;2719;53.624;9.786;2023-03-24T14:09:22;16.10;93.30
5392;DHT22;2719;53.624;9.786;2023-03-24T14:12:08;16.40;94.00
5392;DHT22;2719;53.624;9.786;2023-03-24T14:15:10;16.60;93.70
5392;DHT22;2719;53.624;9.786;2023-03-24T14:17:41;16.60;93.60
5392;DHT22;2719;53.624;9.786;2023-03-24T14:20:22;16.30;93.60
5392;DHT22;2719;53.624;9.786;2023-03-24T14:22:50;16.30;93.50
5392;DHT22;2719;53.624;9.786;2023-03-24T14:25:23;16.10;93.70
5392;DHT22;2719;53.624;9.786;2023-03-24T14:27:51;16.20;93.90
5392;DHT22;2719;53.624;9.786;2023-03-24T14:30:21;15.90;93.60
5392;DHT22;2719;53.624;9.786;2023-03-24T14:32:51;16.00;94.00
5392;DHT22;2719;53.624;9.786;2023-03-24T14:35:25;16.10;94.40
5392;DHT22;2719;53.624;9.786;2023-03-24T14:37:57;16.20;94.00
5392;DHT22;2719;53.624;9.786;2023-03-24T14:40:28;16.10;93.80
5392;DHT22;2719;53.624;9.786;2023-03-24T14:43:11;16.20;93.80
5392;DHT22;2719;53.624;9.786;2023-03-24T14:45:57;16.50;94.80
5392;DHT22;2719;53.624;9.786;2023-03-24T14:48:33;16.80;94.10
5392;DHT22;2719;53.624;9.786;2023-03-24T14:51:05;16.60;93.40
5392;DHT22;2719;53.624;9.786;2023-03-24T14:53:35;16.70;92.60
5392;DHT22;2719;53.624;9.786;2023-03-24T14:56:04;16.80;92.80
5392;DHT22;2719;53.624;9.786;2023-03-24T14:58:35;16.70;92.80
5392;DHT22;2719;53.624;9.786;2023-03-24T15:01:05;16.70;92.60
5392;DHT22;2719;53.624;9.786;2023-03-24T15:03:40;16.90;92.60
5392;DHT22;2719;53.624;9.786;2023-03-24T15:06:14;16.90;92.70
5392;DHT22;2719;53.624;9.786;2023-03-24T15:08:44;17.00;92.40
5392;DHT22;2719;53.624;9.786;2023-03-24T15:11:15;16.80;91.80
5392;DHT22;2719;53.624;9.786;2023-03-24T15:13:43;16.60;92.50
5392;DHT22;2719;53.624;9.786;2023-03-24T15:16:19;16.30;91.20
5392;DHT22;2719;53.624;9.786;2023-03-24T15:18:48;15.90;91.20
5392;DHT22;2719;53.624;9.786;2023-03-24T15:21:22;15.90;91.40
5392;DHT22;2719;53.624;9.786;2023-03-24T15:23:50;16.10;91.50
5392;DHT22;2719;53.624;9.786;2023-03-24T15:26:18;16.20;91.50
5392;DHT22;2719;53.624;9.786;2023-03-24T15:28:52;16.20;92.50
5392;DHT22;2719;53.624;9.786;2023-03-24T15:31:20;16.10;91.60
5392;DHT22;2719;53.624;9.786;2023-03-24T15:33:49;16.10;91.50
5392;DHT22;2719;53.624;9.786;2023-03-24T15:36:20;16.00;91.60
5392;DHT22;2719;53.624;9.786;2023-03-24T15:38:50;16.30;92.50
5392;DHT22;2719;53.624;9.786;2023-03-24T15:41:18;16.20;92.20
5392;DHT22;2719;53.624;9.786;2023-03-24T15:43:47;16.00;92.00
5392;DHT22;2719;53.624;9.786;2023-03-24T15:46:23;15.90;92.60
5392;DHT22;2719;53.624;9.786;2023-03-24T15:48:53;15.80;92.70
5392;DHT22;2719;53.624;9.786;2023-03-24T15:51:46;15.80;92.80
5392;DHT22;2719;53.624;9.786;2023-03-24T15:54:26;15.90;92.90
5392;DHT22;2719;53.624;9.786;2023-03-24T15:57:02;15.90;93.00
5392;DHT22;2719;53.624;9.786;2023-03-24T15:59:36;16.10;92.90
5392;DHT22;2719;53.624;9.786;2023-03-24T16:02:10;16.00;92.80
5392;DHT22;2719;53.624;9.786;2023-03-24T16:04:40;15.90;92.80
5392;DHT22;2719;53.624;9.786;2023-03-24T16:07:21;15.80;93.60
5392;DHT22;2719;53.624;9.786;2023-03-24T16:09:58;15.70;93.20
5392;DHT22;2719;53.624;9.786;2023-03-24T16:12:34;15.60;94.00
5392;DHT22;2719;53.624;9.786;2023-03-24T16:15:01;15.50;93.60
5392;DHT22;2719;53.624;9.786;2023-03-24T16:17:31;15.40;94.50
5392;DHT22;2719;53.624;9.786;2023-03-24T16:19:58;15.40;94.40
5392;DHT22;2719;53.624;9.786;2023-03-24T16:22:24;15.30;95.00
5392;DHT22;2719;53.624;9.786;2023-03-24T16:24:51;15.20;95.10
5392;DHT22;2719;53.624;9.786;2023-03-24T16:27:18;15.20;95.20
5392;DHT22;2719;53.624;9.786;2023-03-24T16:29:44;15.10;94.90
5392;DHT22;2719;53.624;9.786;2023-03-24T16:32:11;15.20;95.70
5392;DHT22;2719;53.624;9.786;2023-03-24T16:34:39;15.10;95.60
5392;DHT22;2719;53.624;9.786;2023-03-24T16:37:08;15.10;95.90
5392;DHT22;2719;53.624;9.786;2023-03-24T16:39:34;15.10;96.50